Jacksonville, Texas
Current Conditions -  °F | °C
As of 7:55 PM on Saturday 20 Dec 2014 (Local Time) from KJSO Reporting Station
Broken Clouds Broken Clouds  
Wind Chill: 47°   Ceiling: 2200
Heat Index: 47°   Visibility: 10mi
Dew Point: 44°   Wind: 3mph
Humidity: 90%   Direction: 50°NE
Pressure: 30.21"   Gusts: NA
Location:  31.96°N, 95.27°W
Report Text: KJSO 210155Z AUTO 05003KT 10SM BKN022 08/06 A3021 RMK AO2 T00820066
Loading
Personal Weather Stations






























Interactive Weather Map New forecast layout! Learn more

10-Day Weather Forecast

Advertisements
Track Severe Weather on mobile